This is the latest recevied weather packets stored in our database for station/object KG2V. If no packets are shown the sender has not sent any weather packets the latest 10 day(s).
| Time | Temp. | Humidity | Pressure | Rain* | Wind** | Luminosity | Snow |
|---|---|---|---|---|---|---|---|
| 1778256731 | 9.44° C | 68% | 1008.8 hPa | 0 mm | - | 177 W/m² | - |
| 1778256429 | 9.44° C | 67% | 1008.5 hPa | 0 mm | - | 200 W/m² | - |
| 1778256126 | 10° C | 68% | 1008.6 hPa | 0 mm | - | 244 W/m² | - |
| 1778255823 | 8.89° C | 70% | 1008.7 hPa | 0 mm | - | 750 W/m² | - |
| 1778255520 | 10° C | 69% | 1008.7 hPa | 0 mm | - | 453 W/m² | - |
| 1778255217 | 8.89° C | 73% | 1008.5 hPa | 0 mm | - | 719 W/m² | - |
| 1778254914 | 9.44° C | 71% | 1008.7 hPa | 0 mm | - | 162 W/m² | - |
| 1778254610 | 8.89° C | 73% | 1008.8 hPa | 0 mm | - | 645 W/m² | - |
| 1778254308 | 9.44° C | 75% | 1008.5 hPa | 0 mm | - | 375 W/m² | - |
| 1778254004 | 8.89° C | 74% | 1008.4 hPa | 0 mm | - | 300 W/m² | - |
| 1778253699 | 8.89° C | 75% | 1008.5 hPa | 0 mm | - | 520 W/m² | - |
| 1778253396 | 7.78° C | 77% | 1008.6 hPa | 0 mm | - | 316 W/m² | - |
| 1778253093 | 7.78° C | 79% | 1008.7 hPa | 0 mm | - | 232 W/m² | - |
| 1778252790 | 7.78° C | 80% | 1008.8 hPa | 0 mm | - | 209 W/m² | - |
| 1778252487 | 7.78° C | 80% | 1008.8 hPa | 0 mm | - | 193 W/m² | - |
| 1778252183 | 7.22° C | 80% | 1008.6 hPa | 0 mm | - | 226 W/m² | - |
| 1778251879 | 7.78° C | 82% | 1008.4 hPa | 0 mm | - | 220 W/m² | - |
| 1778251577 | 7.22° C | 82% | 1008.7 hPa | 0 mm | - | 284 W/m² | - |
| 1778251275 | 7.22° C | 83% | 1008.4 hPa | 0 mm | - | 203 W/m² | - |
| 1778250972 | 6.67° C | 83% | 1008.6 hPa | 0 mm | - | 240 W/m² | - |
| 1778250668 | 7.22° C | 82% | 1008.5 hPa | 0 mm | - | 219 W/m² | - |
| 1778250360 | 7.22° C | 85% | 1008.7 hPa | 0 mm | - | 259 W/m² | - |
| 1778250056 | 6.67° C | 86% | 1008.5 hPa | 0 mm | - | 267 W/m² | - |
| 1778249752 | 6.67° C | 86% | 1008.5 hPa | 0 mm | - | 217 W/m² | - |
| 1778249445 | 6.11° C | 86% | 1008.5 hPa | 0 mm | - | 269 W/m² | - |
* Rain latest hour (hover to see other rain measurements)
** Current wind speed in m/s (hover to see current wind gust speed)